createdAt,value
2019-01-11T00:00:42.417Z,8.50
2019-01-11T00:03:11.032Z,7.95
2019-01-11T00:05:39.643Z,9.03
2019-01-11T00:08:08.652Z,7.90
2019-01-11T00:10:37.319Z,10.58
2019-01-11T00:13:05.941Z,8.83
2019-01-11T00:15:34.692Z,8.08
2019-01-11T00:18:03.310Z,10.63
2019-01-11T00:20:31.919Z,8.73
2019-01-11T00:23:00.521Z,9.88
2019-01-11T00:25:29.139Z,7.67
2019-01-11T00:27:57.757Z,12.58
2019-01-11T00:30:26.456Z,8.08
2019-01-11T00:32:55.056Z,9.05
2019-01-11T00:35:23.978Z,8.40
2019-01-11T00:37:52.513Z,8.18
2019-01-11T00:40:21.134Z,10.10
2019-01-11T00:42:49.746Z,9.40
2019-01-11T00:45:18.402Z,7.47
2019-01-11T00:47:47.004Z,8.75
2019-01-11T00:50:15.687Z,8.73
2019-01-11T00:52:44.227Z,7.17
2019-01-11T00:55:12.828Z,7.05
2019-01-11T00:57:41.390Z,8.10
2019-01-11T01:00:13.005Z,8.08
2019-01-11T01:02:41.711Z,10.10
2019-01-11T01:05:10.375Z,7.97
2019-01-11T01:07:38.927Z,9.68
2019-01-11T01:10:07.811Z,12.35
2019-01-11T01:12:36.428Z,7.37
2019-01-11T01:15:08.748Z,8.15
2019-01-11T01:17:37.272Z,8.50
2019-01-11T01:20:09.247Z,7.15
2019-01-11T01:22:37.923Z,10.08
2019-01-11T01:25:06.893Z,6.12
2019-01-11T01:27:35.508Z,6.17
2019-01-11T01:30:07.375Z,6.20
2019-01-11T01:32:35.984Z,6.28
2019-01-11T01:35:05.847Z,5.25
2019-01-11T01:37:34.460Z,5.28
2019-01-11T01:40:04.639Z,5.35
2019-01-11T01:42:33.359Z,4.65
2019-01-11T01:45:01.958Z,4.53
2019-01-11T01:47:30.663Z,4.87
2019-01-11T01:49:59.195Z,6.08
2019-01-11T01:52:27.834Z,3.65
2019-01-11T01:54:56.440Z,4.37
2019-01-11T01:57:25.129Z,4.55
2019-01-11T01:59:53.757Z,5.67
2019-01-11T02:02:22.362Z,5.20
2019-01-11T02:04:51.034Z,4.08
2019-01-11T02:07:19.650Z,4.47
2019-01-11T02:09:48.283Z,4.40
2019-01-11T02:12:16.882Z,4.22
2019-01-11T02:14:45.522Z,4.65
2019-01-11T02:17:14.703Z,5.65
2019-01-11T02:19:43.322Z,4.05
2019-01-11T02:22:11.937Z,4.70
2019-01-11T02:24:40.664Z,5.00
2019-01-11T02:27:09.271Z,5.55
2019-01-11T02:29:37.882Z,3.75
2019-01-11T02:32:06.577Z,4.05
2019-01-11T02:34:35.221Z,7.85
2019-01-11T02:37:03.903Z,3.50
2019-01-11T02:39:32.513Z,4.12
2019-01-11T02:42:01.136Z,4.33
2019-01-11T02:44:29.669Z,3.60
2019-01-11T02:46:58.232Z,4.60
2019-01-11T02:49:26.778Z,4.12
2019-01-11T02:51:55.326Z,5.25
2019-01-11T02:54:23.858Z,5.72
2019-01-11T02:56:52.563Z,6.28
2019-01-11T02:59:21.181Z,3.90
2019-01-11T03:01:49.783Z,3.92
2019-01-11T03:04:18.470Z,4.03
2019-01-11T03:06:47.086Z,25.48
2019-01-11T03:09:16.316Z,4.72
2019-01-11T03:11:44.991Z,7.10
2019-01-11T03:14:13.559Z,5.65
2019-01-11T03:16:42.090Z,4.17
2019-01-11T03:19:10.701Z,4.15
2019-01-11T03:21:39.255Z,4.28
2019-01-11T03:24:07.933Z,4.72
2019-01-11T03:26:36.555Z,4.45
2019-01-11T03:29:05.226Z,4.10
2019-01-11T03:31:34.807Z,5.15
2019-01-11T03:34:03.385Z,4.95
2019-01-11T03:36:32.079Z,3.33
2019-01-11T03:39:00.682Z,4.20
2019-01-11T03:41:29.205Z,4.62
2019-01-11T03:43:57.759Z,3.37
2019-01-11T03:46:26.367Z,3.50
2019-01-11T03:48:56.459Z,7.62
2019-01-11T03:51:25.062Z,3.12
2019-01-11T03:53:53.687Z,3.60
2019-01-11T03:56:22.300Z,3.17
2019-01-11T03:58:50.953Z,5.70
2019-01-11T04:01:19.620Z,4.95
2019-01-11T04:03:48.159Z,3.50
2019-01-11T04:06:16.794Z,9.85
2019-01-11T04:08:45.332Z,3.40
2019-01-11T04:11:13.931Z,2.62
2019-01-11T04:13:42.500Z,4.42
2019-01-11T04:16:11.040Z,5.15
2019-01-11T04:18:40.438Z,4.72
2019-01-11T04:21:09.082Z,4.83
2019-01-11T04:23:37.674Z,2.80
2019-01-11T04:26:06.351Z,3.62
2019-01-11T04:28:34.984Z,4.30
2019-01-11T04:31:03.587Z,4.20
2019-01-11T04:33:32.584Z,2.80
2019-01-11T04:36:01.137Z,5.83
2019-01-11T04:38:29.678Z,3.40
2019-01-11T04:40:58.288Z,2.95
2019-01-11T04:43:26.982Z,3.62
2019-01-11T04:45:55.511Z,3.27
2019-01-11T04:48:24.050Z,3.12
2019-01-11T04:50:52.680Z,3.75
2019-01-11T04:53:21.212Z,3.60
2019-01-11T04:55:49.889Z,4.20
2019-01-11T04:58:18.448Z,2.83
2019-01-11T05:00:47.046Z,3.65
2019-01-11T05:03:15.647Z,4.50
2019-01-11T05:05:44.201Z,3.37
2019-01-11T05:08:12.817Z,2.35
2019-01-11T05:10:41.483Z,4.08
2019-01-11T05:13:17.669Z,3.02
2019-01-11T05:15:46.209Z,3.05
2019-01-11T05:18:14.809Z,3.20
2019-01-11T05:20:43.377Z,3.22
2019-01-11T05:23:11.903Z,5.83
2019-01-11T05:25:40.442Z,6.50
2019-01-11T05:28:09.003Z,4.40
2019-01-11T05:30:37.540Z,4.12
2019-01-11T05:33:06.078Z,4.85
2019-01-11T05:35:35.347Z,6.42
2019-01-11T05:38:03.941Z,4.17
2019-01-11T05:40:32.489Z,3.90
2019-01-11T05:43:01.063Z,3.95
2019-01-11T05:45:29.583Z,5.10
2019-01-11T05:47:58.123Z,3.30
2019-01-11T05:50:26.752Z,5.47
2019-01-11T05:52:55.299Z,6.85
2019-01-11T05:55:25.485Z,3.40
2019-01-11T05:58:12.020Z,6.90
2019-01-11T06:00:40.546Z,3.75
2019-01-11T06:03:11.099Z,6.35
2019-01-11T06:05:39.592Z,4.50
2019-01-11T06:08:09.833Z,7.58
2019-01-11T06:10:38.369Z,4.33
2019-01-11T06:13:06.922Z,6.40
2019-01-11T06:15:35.460Z,4.53
2019-01-11T06:18:04.064Z,7.08
2019-01-11T06:20:32.693Z,7.45
2019-01-11T06:23:01.293Z,5.70
2019-01-11T06:25:29.832Z,6.45
2019-01-11T06:27:58.455Z,8.98
2019-01-11T06:30:27.063Z,8.78
2019-01-11T06:32:55.955Z,11.68
2019-01-11T06:35:24.518Z,7.35
2019-01-11T06:37:53.057Z,4.75
2019-01-11T06:40:21.652Z,7.20
2019-01-11T06:42:50.216Z,4.70
2019-01-11T06:45:18.754Z,6.72
2019-01-11T06:47:47.428Z,11.75
2019-01-11T06:50:17.020Z,5.53
2019-01-11T06:52:45.550Z,6.08
2019-01-11T06:55:14.236Z,5.53
2019-01-11T06:57:42.926Z,6.40
2019-01-11T07:00:17.795Z,4.80
2019-01-11T07:02:46.390Z,3.85
2019-01-11T07:05:15.047Z,6.78
2019-01-11T07:07:43.630Z,17.70
2019-01-11T07:10:20.728Z,5.67
2019-01-11T07:12:49.341Z,4.22
2019-01-11T07:15:17.929Z,5.17
2019-01-11T07:17:46.623Z,6.83
2019-01-11T07:20:15.628Z,7.67
2019-01-11T07:22:44.229Z,9.43
2019-01-11T07:25:14.821Z,5.45
2019-01-11T07:27:45.063Z,6.33
2019-01-11T07:30:15.901Z,6.03
2019-01-11T07:32:45.400Z,7.95
2019-01-11T07:35:14.057Z,5.22
2019-01-11T07:37:42.659Z,5.53
2019-01-11T07:40:12.738Z,9.00
2019-01-11T07:42:41.419Z,5.87
2019-01-11T07:45:12.195Z,5.78
2019-01-11T07:47:40.759Z,7.10
2019-01-11T07:50:10.339Z,6.05
2019-01-11T07:52:40.226Z,7.37
2019-01-11T07:55:09.847Z,6.90
2019-01-11T07:57:38.454Z,7.67
2019-01-11T08:00:10.235Z,8.05
2019-01-11T08:02:38.803Z,13.75
2019-01-11T08:05:07.880Z,5.53
2019-01-11T08:07:36.496Z,6.55
2019-01-11T08:10:12.671Z,7.45
2019-01-11T08:12:41.360Z,11.93
2019-01-11T08:15:16.232Z,5.53
2019-01-11T08:17:44.831Z,7.12
2019-01-11T08:20:13.510Z,6.67
2019-01-11T08:22:44.630Z,5.58
2019-01-11T08:25:14.699Z,6.28
2019-01-11T08:27:44.296Z,5.60
2019-01-11T08:30:16.699Z,4.85
2019-01-11T08:32:45.448Z,8.93
2019-01-11T08:35:15.114Z,7.20
2019-01-11T08:37:43.828Z,7.95
2019-01-11T08:40:12.999Z,9.20
2019-01-11T08:42:41.607Z,7.47
2019-01-11T08:45:13.252Z,7.53
2019-01-11T08:47:41.927Z,8.70
2019-01-11T08:50:19.344Z,8.03
2019-01-11T08:52:48.054Z,8.03
2019-01-11T08:55:17.025Z,7.62
2019-01-11T08:57:45.747Z,9.43
2019-01-11T09:00:16.429Z,6.03
2019-01-11T09:02:45.110Z,9.25
2019-01-11T09:05:14.383Z,4.80
2019-01-11T09:07:42.996Z,7.45
2019-01-11T09:10:22.445Z,5.90
2019-01-11T09:12:46.960Z,5.00
2019-01-11T09:15:15.697Z,5.92
2019-01-11T09:17:58.053Z,5.10
2019-01-11T09:20:26.588Z,7.30
2019-01-11T09:22:55.187Z,6.60
2019-01-11T09:25:23.848Z,8.78
2019-01-11T09:27:52.387Z,5.12
2019-01-11T09:30:21.062Z,7.05
2019-01-11T09:32:49.691Z,9.30
2019-01-11T09:35:18.224Z,6.85
2019-01-11T09:37:46.744Z,7.75
2019-01-11T09:40:15.443Z,5.65
2019-01-11T09:42:44.036Z,6.37
2019-01-11T09:45:12.852Z,5.92
2019-01-11T09:47:41.556Z,9.10
2019-01-11T09:50:10.344Z,7.35
2019-01-11T09:52:38.951Z,6.20
2019-01-11T09:55:08.438Z,7.70
2019-01-11T09:57:37.111Z,5.28
2019-01-11T10:00:20.551Z,6.45
2019-01-11T10:02:50.800Z,5.78
2019-01-11T10:05:19.499Z,4.92
2019-01-11T10:07:48.124Z,9.85
2019-01-11T10:10:16.795Z,6.10
2019-01-11T10:12:45.461Z,4.60
2019-01-11T10:15:15.349Z,5.55
2019-01-11T10:17:44.226Z,8.58
2019-01-11T10:20:13.899Z,5.62
2019-01-11T10:22:42.994Z,5.45
2019-01-11T10:25:12.067Z,5.45
2019-01-11T10:27:41.630Z,3.83
2019-01-11T10:30:18.894Z,5.15
2019-01-11T10:32:47.499Z,6.92
2019-01-11T10:35:16.175Z,3.60
2019-01-11T10:37:44.788Z,3.50
2019-01-11T10:40:17.540Z,4.58
2019-01-11T10:42:46.382Z,3.40
2019-01-11T10:45:17.708Z,3.95
2019-01-11T10:47:46.387Z,3.12
2019-01-11T10:50:17.130Z,3.67
2019-01-11T10:52:45.828Z,7.50
2019-01-11T10:55:16.196Z,3.40
2019-01-11T10:57:45.636Z,7.08
2019-01-11T11:00:20.997Z,4.55
2019-01-11T11:02:50.264Z,5.92
2019-01-11T11:05:18.931Z,3.27
2019-01-11T11:07:47.564Z,3.70
2019-01-11T11:10:16.236Z,3.70
2019-01-11T11:12:44.844Z,4.20
2019-01-11T11:15:15.837Z,4.40
2019-01-11T11:17:45.167Z,3.95
2019-01-11T11:20:18.882Z,5.50
2019-01-11T11:22:47.750Z,5.97
2019-01-11T11:25:20.176Z,4.55
2019-01-11T11:27:48.841Z,8.85
2019-01-11T11:30:18.903Z,5.75
2019-01-11T11:32:58.004Z,5.60
2019-01-11T11:35:26.998Z,4.15
2019-01-11T11:37:55.662Z,2.98
2019-01-11T11:40:24.512Z,3.12
2019-01-11T11:42:53.206Z,3.35
2019-01-11T11:45:21.893Z,2.75
2019-01-11T11:47:50.494Z,3.98
2019-01-11T11:50:19.182Z,5.95
2019-01-11T11:52:47.724Z,6.37
2019-01-11T11:55:16.339Z,4.65
2019-01-11T11:57:44.966Z,4.87
2019-01-11T12:00:16.544Z,3.65
2019-01-11T12:02:45.160Z,3.58
2019-01-11T12:05:13.845Z,3.20
2019-01-11T12:07:42.432Z,3.00
2019-01-11T12:10:13.703Z,2.90
2019-01-11T12:12:42.330Z,2.67
2019-01-11T12:15:12.694Z,2.50
2019-01-11T12:17:41.372Z,4.95
2019-01-11T12:20:13.008Z,4.20
2019-01-11T12:22:41.677Z,3.50
2019-01-11T12:25:10.344Z,2.70
2019-01-11T12:27:38.911Z,3.67
2019-01-11T12:30:13.664Z,3.10
2019-01-11T12:32:42.355Z,4.62
2019-01-11T12:35:11.028Z,3.75
2019-01-11T12:37:39.697Z,3.30
2019-01-11T12:40:10.691Z,3.92
2019-01-11T12:42:39.306Z,4.22
2019-01-11T12:45:10.967Z,3.95
2019-01-11T12:47:39.522Z,3.75
2019-01-11T12:50:11.363Z,3.35
2019-01-11T12:52:40.037Z,4.22
2019-01-11T12:55:08.727Z,3.42
2019-01-11T12:57:37.389Z,5.03
2019-01-11T13:00:09.207Z,4.17
2019-01-11T13:02:37.756Z,4.42
2019-01-11T13:05:09.011Z,3.58
2019-01-11T13:07:37.612Z,6.28
2019-01-11T13:10:09.076Z,4.37
2019-01-11T13:12:37.663Z,5.80
2019-01-11T13:15:09.270Z,8.93
2019-01-11T13:17:37.939Z,5.05
2019-01-11T13:20:09.869Z,6.50
2019-01-11T13:22:38.395Z,4.35
2019-01-11T13:25:08.360Z,6.72
2019-01-11T13:27:37.027Z,4.28
2019-01-11T13:30:14.532Z,4.78
2019-01-11T13:32:43.299Z,5.03
2019-01-11T13:35:12.071Z,4.53
2019-01-11T13:37:42.708Z,6.17
2019-01-11T13:40:19.789Z,6.75
2019-01-11T13:42:48.412Z,7.55
2019-01-11T13:45:17.284Z,3.55
2019-01-11T13:47:46.040Z,4.92
2019-01-11T13:50:20.231Z,4.42
2019-01-11T13:52:48.762Z,6.47
2019-01-11T13:55:17.432Z,6.10
2019-01-11T13:57:46.068Z,6.47
2019-01-11T14:00:15.447Z,4.72
2019-01-11T14:02:44.050Z,6.37
2019-01-11T14:05:12.774Z,5.72
2019-01-11T14:07:41.441Z,5.65
2019-01-11T14:10:10.123Z,5.40
2019-01-11T14:12:38.671Z,4.75
2019-01-11T14:15:09.844Z,3.33
2019-01-11T14:17:38.715Z,4.40
2019-01-11T14:20:10.115Z,4.03
2019-01-11T14:22:38.812Z,4.58
2019-01-11T14:25:09.375Z,4.70
2019-01-11T14:27:38.066Z,4.85
2019-01-11T14:30:09.919Z,4.40
2019-01-11T14:32:38.585Z,4.78
2019-01-11T14:35:08.588Z,6.08
2019-01-11T14:37:37.268Z,6.05
2019-01-11T14:40:09.448Z,4.30
2019-01-11T14:42:38.011Z,4.70
2019-01-11T14:45:09.491Z,5.05
2019-01-11T14:47:38.099Z,5.50
2019-01-11T14:50:12.449Z,6.60
2019-01-11T14:52:41.077Z,5.60
2019-01-11T14:55:10.261Z,6.55
2019-01-11T14:57:38.960Z,6.62
2019-01-11T15:00:13.524Z,4.20
2019-01-11T15:02:42.138Z,6.70
2019-01-11T15:05:12.335Z,5.92
2019-01-11T15:07:41.010Z,8.68
2019-01-11T15:10:11.783Z,5.30
2019-01-11T15:12:40.883Z,5.20
2019-01-11T15:15:09.879Z,4.65
2019-01-11T15:17:38.394Z,8.53
2019-01-11T15:20:12.880Z,19.37
2019-01-11T15:22:41.539Z,19.00
2019-01-11T15:25:11.137Z,12.75
2019-01-11T15:27:39.768Z,12.73
2019-01-11T15:30:14.424Z,12.30
2019-01-11T15:32:42.960Z,9.03
2019-01-11T15:35:11.670Z,7.47
2019-01-11T15:37:40.295Z,7.87
2019-01-11T15:40:14.515Z,8.78
2019-01-11T15:42:43.086Z,13.30
2019-01-11T15:45:12.198Z,6.53
2019-01-11T15:47:40.779Z,6.55
2019-01-11T15:50:17.220Z,5.92
2019-01-11T15:52:46.015Z,4.10
2019-01-11T15:55:15.921Z,4.03
2019-01-11T15:57:44.548Z,7.72
2019-01-11T16:00:19.307Z,5.28
2019-01-11T16:02:47.989Z,6.67
2019-01-11T16:05:16.642Z,5.03
2019-01-11T16:07:45.252Z,6.03
2019-01-11T16:10:16.840Z,4.15
2019-01-11T16:12:45.952Z,11.10
2019-01-11T16:15:17.569Z,18.17
2019-01-11T16:17:46.252Z,24.52
2019-01-11T16:20:14.884Z,18.05
2019-01-11T16:22:43.430Z,28.65
2019-01-11T16:25:13.517Z,20.25
2019-01-11T16:27:42.279Z,16.67
2019-01-11T16:30:15.937Z,19.27
2019-01-11T16:32:44.477Z,10.82
2019-01-11T16:35:13.316Z,14.87
2019-01-11T16:37:41.913Z,7.03
2019-01-11T16:40:12.395Z,9.60
2019-01-11T16:42:41.085Z,7.60
2019-01-11T16:45:14.483Z,6.83
2019-01-11T16:47:43.090Z,8.33
2019-01-11T16:50:17.662Z,5.87
2019-01-11T16:52:46.729Z,7.08
2019-01-11T16:55:15.334Z,4.90
2019-01-11T16:57:43.959Z,6.28
2019-01-11T17:00:18.044Z,8.75
2019-01-11T17:02:46.810Z,7.65
2019-01-11T17:05:15.728Z,8.43
2019-01-11T17:07:44.604Z,7.25
2019-01-11T17:10:13.510Z,7.65
2019-01-11T17:12:42.189Z,5.35
2019-01-11T17:15:14.108Z,6.65
2019-01-11T17:17:42.644Z,5.80
2019-01-11T17:20:14.304Z,5.22
2019-01-11T17:22:42.980Z,8.68
2019-01-11T17:25:11.864Z,7.35
2019-01-11T17:27:40.574Z,5.67
2019-01-11T17:30:12.419Z,7.67
2019-01-11T17:32:41.001Z,9.93
2019-01-11T17:35:09.657Z,8.55
2019-01-11T17:37:38.262Z,6.30
2019-01-11T17:40:09.243Z,8.30
2019-01-11T17:42:37.872Z,8.13
2019-01-11T17:45:09.142Z,10.00
2019-01-11T17:47:37.745Z,8.60
2019-01-11T17:50:09.717Z,4.75
2019-01-11T17:52:38.411Z,6.62
2019-01-11T17:55:07.494Z,9.50
2019-01-11T17:57:36.236Z,6.25
2019-01-11T18:00:14.450Z,5.70
2019-01-11T18:02:43.165Z,5.75
2019-01-11T18:05:13.431Z,18.67
2019-01-11T18:07:41.973Z,8.70
2019-01-11T18:10:11.781Z,5.03
2019-01-11T18:12:40.583Z,6.72
2019-01-11T18:15:12.229Z,5.15
2019-01-11T18:17:40.791Z,7.25
2019-01-11T18:20:17.987Z,8.98
2019-01-11T18:22:46.699Z,7.83
2019-01-11T18:25:15.467Z,6.15
2019-01-11T18:27:44.175Z,8.20
2019-01-11T18:30:17.596Z,5.20
2019-01-11T18:32:46.266Z,6.10
2019-01-11T18:35:15.555Z,6.15
2019-01-11T18:37:44.643Z,7.33
2019-01-11T18:40:22.003Z,11.57
2019-01-11T18:42:50.694Z,8.40
2019-01-11T18:45:19.483Z,6.15
2019-01-11T18:47:48.143Z,7.25
2019-01-11T18:50:19.518Z,5.87
2019-01-11T18:52:48.290Z,8.38
2019-01-11T18:55:16.901Z,7.25
2019-01-11T18:57:46.064Z,5.95
2019-01-11T19:00:18.615Z,5.22
2019-01-11T19:02:47.225Z,5.78
2019-01-11T19:05:16.313Z,6.72
2019-01-11T19:07:46.131Z,5.15
2019-01-11T19:10:17.641Z,5.55
2019-01-11T19:12:46.303Z,6.67
2019-01-11T19:15:17.750Z,6.95
2019-01-11T19:17:46.364Z,6.35
2019-01-11T19:20:20.562Z,6.55
2019-01-11T19:22:49.229Z,6.25
2019-01-11T19:25:17.907Z,5.30
2019-01-11T19:27:46.535Z,5.15
2019-01-11T19:30:17.806Z,5.12
2019-01-11T19:32:46.716Z,3.72
2019-01-11T19:35:15.424Z,5.78
2019-01-11T19:37:44.298Z,4.75
2019-01-11T19:40:18.683Z,4.47
2019-01-11T19:42:47.597Z,4.67
2019-01-11T19:45:17.785Z,3.87
2019-01-11T19:47:46.519Z,4.10
2019-01-11T19:50:20.136Z,2.40
2019-01-11T19:52:50.253Z,5.58
2019-01-11T19:55:19.595Z,4.10
2019-01-11T19:57:48.289Z,3.60
2019-01-11T20:00:21.999Z,7.37
2019-01-11T20:02:50.889Z,3.58
2019-01-11T20:05:20.427Z,4.20
2019-01-11T20:07:49.064Z,3.85
2019-01-11T20:10:23.439Z,3.33
2019-01-11T20:12:52.137Z,3.35
2019-01-11T20:15:20.738Z,4.12
2019-01-11T20:17:49.409Z,5.55
2019-01-11T20:20:18.106Z,3.05
2019-01-11T20:22:46.636Z,2.70
2019-01-11T20:25:20.889Z,2.83
2019-01-11T20:27:49.711Z,2.67
2019-01-11T20:30:20.698Z,4.10
2019-01-11T20:32:49.302Z,2.72
2019-01-11T20:35:18.307Z,2.60
2019-01-11T20:37:46.971Z,1.87
2019-01-11T20:40:16.767Z,2.25
2019-01-11T20:42:45.455Z,1.37
2019-01-11T20:45:16.055Z,2.15
2019-01-11T20:47:44.665Z,2.77
2019-01-11T20:50:18.744Z,2.02
2019-01-11T20:52:47.364Z,2.30
2019-01-11T20:55:16.243Z,2.47
2019-01-11T20:57:45.135Z,2.72
2019-01-11T21:00:22.763Z,2.85
2019-01-11T21:02:51.465Z,3.05
2019-01-11T21:05:20.245Z,2.30
2019-01-11T21:07:48.853Z,2.72
2019-01-11T21:12:44.589Z,1.67
2019-01-11T21:15:19.312Z,2.85
2019-01-11T21:17:48.180Z,1.47
2019-01-11T21:20:18.688Z,1.82
2019-01-11T21:22:47.767Z,1.75
2019-01-11T21:25:18.811Z,1.82
2019-01-11T21:27:47.512Z,1.90
2019-01-11T21:30:23.583Z,1.70
2019-01-11T21:32:52.287Z,1.67
2019-01-11T21:35:21.069Z,2.00
2019-01-11T21:37:49.670Z,1.80
2019-01-11T21:40:20.278Z,0.98
2019-01-11T21:42:49.359Z,1.35
2019-01-11T21:45:18.248Z,1.60
2019-01-11T21:47:47.032Z,2.15
2019-01-11T21:50:20.718Z,1.30
2019-01-11T21:52:49.601Z,2.05
2019-01-11T21:55:18.293Z,1.10
2019-01-11T21:57:47.674Z,1.30
2019-01-11T22:00:25.523Z,1.25
2019-01-11T22:02:54.227Z,3.10
2019-01-11T22:05:23.098Z,1.50
2019-01-11T22:07:51.904Z,2.35
2019-01-11T22:10:20.506Z,1.55
2019-01-11T22:12:49.183Z,1.92
2019-01-11T22:15:19.488Z,1.70
2019-01-11T22:17:48.100Z,2.58
2019-01-11T22:20:17.976Z,2.12
2019-01-11T22:22:46.772Z,3.90
2019-01-11T22:25:16.545Z,3.45
2019-01-11T22:27:45.162Z,2.30
2019-01-11T22:30:16.527Z,2.65
2019-01-11T22:32:45.127Z,1.75
2019-01-11T22:35:13.738Z,1.85
2019-01-11T22:37:42.380Z,1.72
2019-01-11T22:40:16.576Z,2.30
2019-01-11T22:42:45.184Z,1.60
2019-01-11T22:45:15.279Z,1.77
2019-01-11T22:47:43.960Z,1.80
2019-01-11T22:50:14.741Z,2.27
2019-01-11T22:52:43.372Z,1.62
2019-01-11T22:55:14.249Z,1.40
2019-01-11T22:57:42.793Z,1.60
2019-01-11T23:00:28.066Z,2.72
2019-01-11T23:02:58.821Z,3.85
2019-01-11T23:05:27.414Z,8.63
2019-01-11T23:07:57.024Z,1.60
2019-01-11T23:10:37.464Z,1.05
2019-01-11T23:13:06.085Z,1.10
2019-01-11T23:15:34.697Z,1.80
2019-01-11T23:18:03.236Z,1.05
2019-01-11T23:20:31.868Z,0.70
2019-01-11T23:23:00.399Z,0.90
2019-01-11T23:25:29.013Z,1.98
2019-01-11T23:27:57.636Z,0.70
2019-01-11T23:30:26.242Z,0.90
2019-01-11T23:32:54.865Z,1.50
2019-01-11T23:35:23.490Z,1.12
2019-01-11T23:37:52.031Z,1.75
2019-01-11T23:40:20.631Z,1.12
2019-01-11T23:42:49.269Z,1.20
2019-01-11T23:45:17.944Z,1.60
2019-01-11T23:47:46.611Z,1.72
2019-01-11T23:50:15.916Z,3.05
2019-01-11T23:52:44.892Z,2.67
2019-01-11T23:55:13.491Z,1.92
2019-01-11T23:57:42.116Z,2.75
